Time;durP1;ratioP1;P1;durP2;ratioP2;P2;SDS_P1;SDS_P2;PMS_P1;PMS_P2;Temp;Humidity;BMP_temperature;BMP_pressure;BME280_temperature;BME280_humidity;BME280_pressure;Samples;Min_cycle;Max_cycle;Signal;HPM_P1;HPM_P2
2021/04/07 00:00:31;;;;;;;;;;;;;;;18.68;64.37;100723.25;5109567;28;904;-68
2021/04/07 00:02:57;;;;;;;;;;;;;;;18.68;64.42;100727.69;5105334;28;1242;-69
2021/04/07 00:05:26;;;;;;;;;;;;;;;18.67;64.49;100721.53;5091935;28;1051;-69
2021/04/07 00:07:54;;;;;;;;;;;;;;;18.66;64.54;100717.22;5091175;28;1305;-69
2021/04/07 00:10:21;;;;;;;;;;;;;;;18.67;64.40;100718.91;5109944;28;1173;-69
2021/04/07 00:13:08;;;;;;;;;;;;;;;18.67;64.42;100721.53;5108181;28;1553;-69
2021/04/07 00:15:35;;;;;;;;;;;;;;;18.67;64.51;100720.69;5109986;28;1049;-69
2021/04/07 00:18:02;;;;;;;;;;;;;;;18.66;64.36;100726.94;5109757;28;1288;-69
2021/04/07 00:20:29;;;;;;;;;;;;;;;18.65;64.51;100723.44;5109530;28;1060;-69
2021/04/07 00:22:55;;;;;;;;;;;;;;;18.65;64.49;100723.44;5110127;28;1241;-70
2021/04/07 00:25:22;;;;;;;;;;;;;;;18.64;64.56;100721.72;5091514;28;920;-69
2021/04/07 00:28:08;;;;;;;;;;;;;;;18.64;64.42;100724.34;5109533;28;1247;-70
2021/04/07 00:30:35;;;;;;;;;;;;;;;18.63;64.52;100717.41;5090739;28;1910;-70
2021/04/07 00:33:02;;;;;;;;;;;;;;;18.63;64.47;100722.69;5090892;28;1274;-67
2021/04/07 00:35:29;;;;;;;;;;;;;;;18.61;64.59;100732.44;5110090;28;1094;-68
2021/04/07 00:37:56;;;;;;;;;;;;;;;18.62;64.49;100738.56;5109448;28;1195;-69
2021/04/07 00:40:23;;;;;;;;;;;;;;;18.62;64.54;100738.56;5091153;28;1083;-69
2021/04/07 00:42:51;;;;;;;;;;;;;;;18.61;64.45;100745.63;5109208;28;1419;-68
2021/04/07 00:45:17;;;;;;;;;;;;;;;18.61;64.47;100758.81;5110069;28;1078;-68
2021/04/07 00:47:43;;;;;;;;;;;;;;;18.61;64.47;100756.19;5110698;28;1355;-66
2021/04/07 00:50:10;;;;;;;;;;;;;;;18.60;64.49;100757.16;5110426;28;1167;-67
2021/04/07 00:52:37;;;;;;;;;;;;;;;18.60;64.61;100761.56;5090632;28;2243;-68
2021/04/07 00:55:09;;;;;;;;;;;;;;;18.59;64.41;100758.06;5091726;28;917;-68
2021/04/07 00:57:35;;;;;;;;;;;;;;;18.59;64.41;100763.34;5109091;28;1215;-68
2021/04/07 01:00:02;;;;;;;;;;;;;;;18.59;64.34;100765.13;5108885;28;928;-69
2021/04/07 01:02:29;;;;;;;;;;;;;;;18.58;64.23;100769.56;5108979;28;1243;-68
2021/04/07 01:04:55;;;;;;;;;;;;;;;18.59;64.34;100779.19;5109069;28;1130;-68
2021/04/07 01:07:22;;;;;;;;;;;;;;;18.57;64.21;100773.16;5090285;28;1481;-68
2021/04/07 01:09:48;;;;;;;;;;;;;;;18.58;64.30;100780.09;5090370;28;1102;-69
2021/04/07 01:12:14;;;;;;;;;;;;;;;18.58;64.21;100779.25;5108709;28;1980;-70
2021/04/07 01:14:40;;;;;;;;;;;;;;;18.56;64.18;100784.63;5109191;28;927;-69
2021/04/07 01:17:07;;;;;;;;;;;;;;;18.56;64.37;100789.91;5108942;28;1317;-69
2021/04/07 01:19:34;;;;;;;;;;;;;;;18.58;64.39;100788.03;5109539;28;927;-70
2021/04/07 01:22:01;;;;;;;;;;;;;;;18.57;64.32;100788.13;5108988;28;1326;-69
2021/04/07 01:24:29;;;;;;;;;;;;;;;18.56;64.35;100787.25;5108801;28;1041;-69
2021/04/07 01:26:55;;;;;;;;;;;;;;;18.57;64.23;100782.84;5109142;28;1329;-69
2021/04/07 01:29:21;;;;;;;;;;;;;;;18.55;64.17;100789.03;5090601;28;1479;-69
2021/04/07 01:31:48;;;;;;;;;;;;;;;18.55;64.16;100790.84;5108757;28;1914;-69
2021/04/07 01:34:24;;;;;;;;;;;;;;;18.55;64.20;100788.19;5112918;28;1106;-69
2021/04/07 01:36:50;;;;;;;;;;;;;;;18.54;64.27;100789.97;5112773;28;1231;-69
2021/04/07 01:39:17;;;;;;;;;;;;;;;18.53;64.29;100790.94;5094333;28;1247;-69
2021/04/07 01:41:44;;;;;;;;;;;;;;;18.54;64.32;100795.25;5094037;28;1389;-68
2021/04/07 01:44:12;;;;;;;;;;;;;;;18.53;64.51;100798.84;5112636;28;1066;-68
2021/04/07 01:46:39;;;;;;;;;;;;;;;18.54;64.40;100797.06;5094066;28;1232;-68
2021/04/07 01:49:07;;;;;;;;;;;;;;;18.54;64.35;100803.16;5093834;28;1377;-69
2021/04/07 01:51:34;;;;;;;;;;;;;;;18.54;64.40;100804.97;5093729;28;1917;-69
2021/04/07 01:54:01;;;;;;;;;;;;;;;18.54;64.29;100813.72;5093864;28;1040;-69
2021/04/07 01:56:27;;;;;;;;;;;;;;;18.53;64.26;100816.44;5094357;28;1235;-69
2021/04/07 01:59:00;;;;;;;;;;;;;;;18.51;64.42;100824.44;5112609;28;1048;-69
2021/04/07 02:01:26;;;;;;;;;;;;;;;18.52;64.26;100822.66;5111546;28;1228;-69
2021/04/07 02:03:52;;;;;;;;;;;;;;;18.52;64.23;100823.50;5077206;28;1235;-69
2021/04/07 02:06:19;;;;;;;;;;;;;;;18.51;64.38;100829.72;5112269;28;1223;-69
2021/04/07 02:08:46;;;;;;;;;;;;;;;18.50;64.19;100829.81;5112492;28;1050;-70
2021/04/07 02:11:12;;;;;;;;;;;;;;;18.50;64.31;100835.09;5094041;28;2030;-70
2021/04/07 02:13:38;;;;;;;;;;;;;;;18.49;64.36;100833.38;5112183;28;844;-70
2021/04/07 02:16:12;;;;;;;;;;;;;;;18.50;64.28;100835.94;5112466;28;1203;-68
2021/04/07 02:18:38;;;;;;;;;;;;;;;18.51;64.05;100835.00;5111977;28;825;-67
2021/04/07 02:21:05;;;;;;;;;;;;;;;18.50;64.11;100837.72;5112024;28;1124;-68
2021/04/07 02:23:32;;;;;;;;;;;;;;;18.48;64.13;100842.22;5111933;28;1211;-68
2021/04/07 02:25:58;;;;;;;;;;;;;;;18.41;64.01;100830.28;5076774;28;1200;-68
2021/04/07 02:28:25;;;;;;;;;;;;;;;18.47;64.00;100843.13;5111653;28;1220;-68
2021/04/07 02:30:51;;;;;;;;;;;;;;;18.42;63.98;100832.00;5093272;28;1969;-68
2021/04/07 02:33:18;;;;;;;;;;;;;;;18.48;64.12;100847.47;5111220;28;1301;-68
2021/04/07 02:35:44;;;;;;;;;;;;;;;18.46;63.94;100844.06;5075939;28;1163;-69
2021/04/07 02:38:11;;;;;;;;;;;;;;;18.47;63.99;100861.59;5111200;28;1161;-69
2021/04/07 02:40:37;;;;;;;;;;;;;;;18.45;63.91;100852.94;5093413;28;1090;-69
2021/04/07 02:43:04;;;;;;;;;;;;;;;18.47;63.92;100853.69;5111240;28;1208;-69
2021/04/07 02:45:30;;;;;;;;;;;;;;;18.46;63.73;100865.16;5111796;28;1052;-69
2021/04/07 02:47:57;;;;;;;;;;;;;;;18.45;63.71;100868.75;5093070;28;1232;-68
2021/04/07 02:50:23;;;;;;;;;;;;;;;18.45;63.70;100868.75;5076060;28;1402;-68
2021/04/07 02:52:50;;;;;;;;;;;;;;;18.46;63.80;100873.06;5111247;28;1909;-68
2021/04/07 02:55:16;;;;;;;;;;;;;;;18.44;63.77;100880.22;5111637;28;1092;-68
2021/04/07 02:57:43;;;;;;;;;;;;;;;18.44;63.68;100870.53;5111380;28;1224;-68
2021/04/07 03:00:10;;;;;;;;;;;;;;;18.44;63.63;100861.75;5093347;28;1190;-67
2021/04/07 03:02:56;;;;;;;;;;;;;;;18.43;63.64;100865.31;5111443;28;1297;-68
2021/04/07 03:05:23;;;;;;;;;;;;;;;18.43;63.60;100875.88;5111692;28;1215;-68
2021/04/07 03:07:49;;;;;;;;;;;;;;;18.43;63.61;100878.50;5110726;28;1255;-68
2021/04/07 03:10:15;;;;;;;;;;;;;;;18.43;63.64;100883.78;5110835;28;1026;-68
2021/04/07 03:12:41;;;;;;;;;;;;;;;18.41;63.57;100883.03;5110942;28;1980;-68
2021/04/07 03:15:11;;;;;;;;;;;;;;;18.41;63.63;100881.25;5075996;28;1283;-68
2021/04/07 03:17:38;;;;;;;;;;;;;;;18.41;63.47;100883.03;5110791;28;1382;-69
2021/04/07 03:20:06;;;;;;;;;;;;;;;18.41;63.48;100890.94;5110597;28;951;-67
2021/04/07 03:22:32;;;;;;;;;;;;;;;18.40;63.48;100891.84;5110761;28;1182;-67
2021/04/07 03:24:58;;;;;;;;;;;;;;;18.40;63.57;100892.72;5092419;28;1059;-68
2021/04/07 03:27:25;;;;;;;;;;;;;;;18.41;63.55;100893.56;5092166;28;1248;-68
2021/04/07 03:29:53;;;;;;;;;;;;;;;18.40;63.58;100905.03;5110906;28;1040;-68
2021/04/07 03:32:20;;;;;;;;;;;;;;;18.37;63.53;100907.84;5110442;28;1906;-68
2021/04/07 03:34:47;;;;;;;;;;;;;;;18.38;63.57;100905.16;5110702;28;1045;-68
2021/04/07 03:37:13;;;;;;;;;;;;;;;18.38;63.44;100905.16;5110324;28;1196;-68
2021/04/07 03:39:39;;;;;;;;;;;;;;;18.39;63.37;100914.75;5111041;28;1152;-69
2021/04/07 03:42:05;;;;;;;;;;;;;;;18.38;63.32;100914.84;5110676;28;1220;-68
2021/04/07 03:44:32;;;;;;;;;;;;;;;18.38;63.55;100922.75;5110947;28;1045;-68
2021/04/07 03:46:58;;;;;;;;;;;;;;;18.37;63.38;100923.66;5092167;28;1318;-68
2021/04/07 03:49:24;;;;;;;;;;;;;;;18.38;63.26;100930.66;5109994;28;1146;-68
2021/04/07 03:51:50;;;;;;;;;;;;;;;18.38;63.17;100928.03;5110075;28;1973;-69
2021/04/07 03:54:18;;;;;;;;;;;;;;;18.36;63.38;100927.25;5110145;28;1148;-69
2021/04/07 03:56:44;;;;;;;;;;;;;;;18.35;63.25;100921.13;5109670;28;1208;-69
2021/04/07 03:59:10;;;;;;;;;;;;;;;18.35;63.41;100920.28;5109990;28;1115;-69
2021/04/07 04:01:36;;;;;;;;;;;;;;;18.35;63.25;100917.63;5109579;28;1232;-69
2021/04/07 04:04:02;;;;;;;;;;;;;;;18.35;63.32;100925.53;5109308;28;900;-69
2021/04/07 04:06:28;;;;;;;;;;;;;;;18.33;63.17;100919.50;5109639;28;1287;-69
2021/04/07 04:08:55;;;;;;;;;;;;;;;18.31;63.28;100922.22;5091307;28;1398;-69
2021/04/07 04:11:21;;;;;;;;;;;;;;;18.31;63.19;100921.34;5074636;28;2005;-69
2021/04/07 04:13:48;;;;;;;;;;;;;;;18.33;63.30;100928.25;5109548;28;1150;-69
2021/04/07 04:16:16;;;;;;;;;;;;;;;18.32;63.27;100933.63;5091767;28;1152;-68
2021/04/07 04:18:42;;;;;;;;;;;;;;;18.33;63.34;100948.53;5109873;28;832;-70
2021/04/07 04:21:08;;;;;;;;;;;;;;;18.31;63.21;100947.72;5091149;28;1332;-69
2021/04/07 04:23:35;;;;;;;;;;;;;;;18.31;63.04;100953.00;5109815;28;1428;-69
2021/04/07 04:26:01;;;;;;;;;;;;;;;18.31;63.17;100955.63;5091297;28;1457;-68
2021/04/07 04:28:28;;;;;;;;;;;;;;;18.30;62.98;100957.41;5109605;28;1314;-68
2021/04/07 04:30:55;;;;;;;;;;;;;;;18.29;63.15;100958.38;5109886;28;1914;-68
2021/04/07 04:33:22;;;;;;;;;;;;;;;18.30;63.03;100969.78;5091728;28;1323;-69
2021/04/07 04:35:49;;;;;;;;;;;;;;;18.30;63.08;100969.78;5091727;28;1299;-69
2021/04/07 04:38:16;;;;;;;;;;;;;;;18.29;62.92;100978.59;5090833;28;1247;-69
2021/04/07 04:40:42;;;;;;;;;;;;;;;18.29;62.85;100976.84;5109872;28;1002;-69
2021/04/07 04:43:09;;;;;;;;;;;;;;;18.30;62.88;100982.97;5109203;28;1224;-68
2021/04/07 04:45:45;;;;;;;;;;;;;;;18.30;62.87;100985.59;5091071;28;1248;-68
2021/04/07 04:48:11;;;;;;;;;;;;;;;18.28;62.73;100996.22;5091083;28;1184;-68
2021/04/07 04:50:38;;;;;;;;;;;;;;;18.27;62.81;100997.13;5109044;28;1162;-67
2021/04/07 04:53:04;;;;;;;;;;;;;;;18.27;62.85;101004.22;5109061;28;1968;-68
2021/04/07 04:55:30;;;;;;;;;;;;;;;18.27;62.63;101006.84;5090765;28;1184;-68
2021/04/07 04:57:57;;;;;;;;;;;;;;;18.27;62.65;101006.84;5090441;28;1374;-68
2021/04/07 05:00:23;;;;;;;;;;;;;;;18.26;62.70;101005.13;5109411;28;908;-69
2021/04/07 05:02:50;;;;;;;;;;;;;;;18.25;62.71;101009.56;5108357;28;1290;-68
2021/04/07 05:05:16;;;;;;;;;;;;;;;18.27;62.63;101022.69;5109136;28;1051;-68
2021/04/07 05:07:42;;;;;;;;;;;;;;;18.26;62.48;101021.81;5093963;28;1281;-68
2021/04/07 05:10:08;;;;;;;;;;;;;;;18.25;62.51;101024.50;5113333;28;1146;-68
2021/04/07 05:12:35;;;;;;;;;;;;;;;18.34;62.40;101029.31;5094496;28;1905;-67
2021/04/07 05:15:01;;;;;;;;;;;;;;;18.31;62.41;101025.06;5094790;28;1379;-69
2021/04/07 05:17:28;;;;;;;;;;;;;;;18.34;62.35;101034.59;5094779;28;1310;-68
2021/04/07 05:19:55;;;;;;;;;;;;;;;18.34;62.14;101027.53;5113281;28;912;-73
2021/04/07 05:22:21;;;;;;;;;;;;;;;18.34;62.31;101040.72;5113412;28;1192;-71
2021/04/07 05:24:47;;;;;;;;;;;;;;;18.34;62.18;101043.38;5113403;28;1134;-70
2021/04/07 05:27:14;;;;;;;;;;;;;;;18.34;61.96;101039.88;5112994;28;1310;-69
2021/04/07 05:29:40;;;;;;;;;;;;;;;18.35;62.13;101052.13;5112945;28;1046;-69
2021/04/07 05:32:07;;;;;;;;;;;;;;;18.37;62.10;101055.53;5112340;28;1977;-68
2021/04/07 05:34:34;;;;;;;;;;;;;;;18.43;62.61;101066.66;5113037;28;1055;-68
2021/04/07 05:37:00;;;;;;;;;;;;;;;18.36;62.26;101067.03;5093977;28;1428;-68
2021/04/07 05:39:27;;;;;;;;;;;;;;;18.32;62.02;101068.97;5112760;28;1093;-69
2021/04/07 05:41:54;;;;;;;;;;;;;;;18.37;62.15;101076.63;5112703;28;1305;-70
2021/04/07 05:44:20;;;;;;;;;;;;;;;18.36;61.89;101074.97;5094172;28;1148;-70
2021/04/07 05:46:46;;;;;;;;;;;;;;;18.47;62.93;101085.81;5094054;28;1213;-68
2021/04/07 05:49:13;;;;;;;;;;;;;;;18.55;62.22;101083.66;5087050;28;1461;-67
2021/04/07 05:51:39;;;;;;;;;;;;;;;18.60;62.06;101094.84;5091706;28;1969;-68
2021/04/07 05:54:06;;;;;;;;;;;;;;;18.50;62.13;101093.59;5056661;28;1324;-69
2021/04/07 05:56:32;;;;;;;;;;;;;;;18.61;62.51;101100.97;5091944;28;1215;-69
2021/04/07 05:58:58;;;;;;;;;;;;;;;18.63;62.14;101099.13;5092127;28;1105;-68
2021/04/07 06:01:25;;;;;;;;;;;;;;;18.56;61.94;101106.50;5073288;28;1342;-68
2021/04/07 06:03:54;;;;;;;;;;;;;;;18.48;61.88;101108.63;5091614;28;1138;-67
2021/04/07 06:06:21;;;;;;;;;;;;;;;18.48;62.52;101111.28;5091670;28;1206;-66
2021/04/07 06:08:48;;;;;;;;;;;;;;;18.47;61.85;101109.56;5091055;28;903;-66
2021/04/07 06:11:15;;;;;;;;;;;;;;;18.45;62.06;101116.69;5091248;28;1906;-67
2021/04/07 06:13:42;;;;;;;;;;;;;;;18.44;61.91;101128.16;5072832;28;1365;-68
2021/04/07 06:16:08;;;;;;;;;;;;;;;18.49;62.49;101134.09;5091792;28;1080;-64
2021/04/07 06:18:35;;;;;;;;;;;;;;;18.51;61.86;101137.53;5090352;28;1367;-63
2021/04/07 06:21:02;;;;;;;;;;;;;;;18.60;61.95;101139.72;5091610;28;1238;-64
2021/04/07 06:23:28;;;;;;;;;;;;;;;18.57;60.96;101141.63;5072966;28;1375;-65
2021/04/07 06:25:54;;;;;;;;;;;;;;;18.48;61.41;101140.28;5080568;28;1537;-65
2021/04/07 06:28:20;;;;;;;;;;;;;;;18.39;61.49;101149.47;5100966;28;1387;-67
2021/04/07 06:30:47;;;;;;;;;;;;;;;18.37;61.34;101150.50;5101432;28;1096;-65
2021/04/07 06:33:25;;;;;;;;;;;;;;;18.34;61.43;101156.78;5101415;28;1910;-64
2021/04/07 06:35:59;;;;;;;;;;;;;;;18.37;61.31;101161.03;5102016;27;1363;-66
2021/04/07 06:38:26;;;;;;;;;;;;;;;18.44;61.27;101167.75;5083125;28;1612;-65
2021/04/07 06:40:54;;;;;;;;;;;;;;;18.44;61.28;101176.50;5078891;28;1600;-63
2021/04/07 06:43:24;;;;;;;;;;;;;;;18.37;61.10;101175.09;5098177;27;1447;-67
2021/04/07 06:45:50;;;;;;;;;;;;;;;18.38;61.12;101190.00;5085344;28;1496;-65
2021/04/07 06:48:16;;;;;;;;;;;;;;;18.41;61.07;101195.13;5099415;27;1505;-66
2021/04/07 06:50:47;;;;;;;;;;;;;;;18.38;61.13;101197.06;5110726;28;1436;-68
2021/04/07 06:53:15;;;;;;;;;;;;;;;18.30;61.25;101196.56;5111310;28;1909;-67
2021/04/07 06:55:41;;;;;;;;;;;;;;;18.28;60.99;101201.03;5104443;28;1051;-68
2021/04/07 06:58:08;;;;;;;;;;;;;;;18.28;60.59;101203.69;5090279;28;1218;-67
2021/04/07 07:00:36;;;;;;;;;;;;;;;18.23;60.78;101210.97;5090839;28;1036;-68
2021/04/07 07:03:08;;;;;;;;;;;;;;;18.23;60.52;101205.69;5071455;28;1310;-67
2021/04/07 07:05:36;;;;;;;;;;;;;;;18.20;60.50;101219.03;5072278;28;897;-67
2021/04/07 07:08:11;;;;;;;;;;;;;;;18.19;60.35;101220.81;5055051;28;1234;-66
2021/04/07 07:10:37;;;;;;;;;;;;;;;18.19;60.24;101220.81;5072036;28;1200;-67
2021/04/07 07:13:04;;;;;;;;;;;;;;;18.16;60.36;101218.31;5071851;28;1898;-69
2021/04/07 07:15:30;;;;;;;;;;;;;;;18.17;60.24;101222.66;5090170;28;894;-69
2021/04/07 07:17:57;;;;;;;;;;;;;;;18.16;59.99;101220.94;5090144;28;1292;-66
2021/04/07 07:20:27;;;;;;;;;;;;;;;18.14;60.20;101227.22;5090463;28;978;-68
2021/04/07 07:22:53;;;;;;;;;;;;;;;18.14;60.23;101232.50;5071983;28;1291;-67
2021/04/07 07:25:19;;;;;;;;;;;;;;;18.11;60.15;101237.91;5090047;28;1058;-69
2021/04/07 07:27:45;;;;;;;;;;;;;;;18.11;59.72;101246.69;5089785;28;1244;-69
2021/04/07 07:30:13;;;;;;;;;;;;;;;18.10;59.59;101247.59;5070905;28;1143;-68
2021/04/07 07:32:43;;;;;;;;;;;;;;;18.11;59.41;101248.47;5071911;28;1953;-69
2021/04/07 07:35:13;;;;;;;;;;;;;;;18.10;59.29;101252.00;5090132;28;1050;-68
2021/04/07 07:37:40;;;;;;;;;;;;;;;18.08;59.20;101265.28;5071886;28;1713;-68
2021/04/07 07:40:19;;;;;;;;;;;;;;;18.07;59.19;101265.34;5089965;28;1068;-67
2021/04/07 07:42:45;;;;;;;;;;;;;;;18.05;58.97;101269.84;5089778;28;1351;-67
2021/04/07 07:45:12;;;;;;;;;;;;;;;18.05;58.79;101275.09;5071620;28;1296;-67
2021/04/07 07:47:44;;;;;;;;;;;;;;;18.02;58.86;101282.22;5089477;28;1384;-67
2021/04/07 07:50:11;;;;;;;;;;;;;;;18.06;58.54;101282.06;5098430;28;1454;-68
2021/04/07 07:52:39;;;;;;;;;;;;;;;18.02;58.46;101281.38;5109907;28;1981;-67
2021/04/07 07:55:15;;;;;;;;;;;;;;;18.01;58.50;101298.97;5094433;28;924;-67
2021/04/07 07:57:59;;;;;;;;;;;;;;;18.01;58.54;101288.44;5089246;28;1176;-67
2021/04/07 08:00:26;;;;;;;;;;;;;;;18.01;58.30;101301.59;5088747;28;937;-67
2021/04/07 08:02:53;;;;;;;;;;;;;;;18.00;58.37;101304.28;5089025;28;1220;-67
2021/04/07 08:05:20;;;;;;;;;;;;;;;17.96;57.90;101300.94;5088982;28;1206;-68
2021/04/07 08:07:46;;;;;;;;;;;;;;;17.97;58.04;101304.44;5089053;28;1290;-68
2021/04/07 08:10:13;;;;;;;;;;;;;;;17.95;57.89;101320.34;5074239;28;1299;-68
2021/04/07 08:12:41;;;;;;;;;;;;;;;17.95;57.80;101328.25;5070548;28;1906;-68
2021/04/07 08:15:08;;;;;;;;;;;;;;;17.93;57.68;101329.25;5070923;28;1392;-67
2021/04/07 08:17:37;;;;;;;;;;;;;;;17.93;57.44;101335.34;5089382;28;1291;-67
2021/04/07 08:20:05;;;;;;;;;;;;;;;17.93;57.54;101337.16;5089528;28;898;-67
2021/04/07 08:22:36;;;;;;;;;;;;;;;17.92;57.30;101344.19;5087815;28;1234;-67
2021/04/07 08:25:03;;;;;;;;;;;;;;;17.98;57.33;101345.69;5089210;28;1018;-67
2021/04/07 08:27:32;;;;;;;;;;;;;;;17.93;56.83;101345.88;5088448;28;1333;-68
2021/04/07 08:29:58;;;;;;;;;;;;;;;17.91;56.78;101350.38;5096208;28;1490;-67
2021/04/07 08:32:25;;;;;;;;;;;;;;;17.88;56.88;101358.41;5107119;28;1977;-70
2021/04/07 08:34:51;;;;;;;;;;;;;;;17.92;56.52;101364.41;5110910;27;1106;-69
2021/04/07 08:37:24;;;;;;;;;;;;;;;17.92;56.61;101370.56;5074200;28;1447;-70
2021/04/07 08:39:51;;;;;;;;;;;;;;;17.95;56.36;101380.97;5109241;28;1163;-70
2021/04/07 08:42:17;;;;;;;;;;;;;;;17.91;56.06;101382.00;5070047;28;1370;-70
2021/04/07 08:44:47;;;;;;;;;;;;;;;17.89;55.94;101383.88;5088721;28;935;-69
2021/04/07 08:48:03;;;;;;;;;;;;;;;17.88;55.82;101390.03;5088733;28;1326;-69
2021/04/07 08:50:11;;;;;;;;;;;;;;;17.89;55.91;101397.03;5094790;28;1358;-67
2021/04/07 08:52:43;;;;;;;;;;;;;;;17.91;55.93;101394.31;5090043;28;1918;-69
2021/04/07 08:55:18;;;;;;;;;;;;;;;17.87;55.78;101401.50;5090401;28;1338;-66
2021/04/07 08:57:57;;;;;;;;;;;;;;;17.87;55.76;101409.41;5090484;28;1319;-70
2021/04/07 09:00:25;;;;;;;;;;;;;;;17.87;55.66;101408.56;5121906;28;1139;-66
2021/04/07 09:02:55;;;;;;;;;;;;;;;17.86;55.66;101407.72;5071723;28;1271;-69
2021/04/07 09:05:32;;;;;;;;;;;;;;;17.87;55.69;101414.69;5112565;28;1240;-67
2021/04/07 09:07:59;;;;;;;;;;;;;;;17.87;55.47;101427.03;5108737;28;1148;-68
2021/04/07 09:10:26;;;;;;;;;;;;;;;17.86;55.40;101422.66;5108808;28;1080;-68
2021/04/07 09:12:53;;;;;;;;;;;;;;;17.86;55.41;101425.31;5108656;28;1985;-66
2021/04/07 09:15:21;;;;;;;;;;;;;;;17.85;55.50;101442.88;5125906;28;1198;-68
2021/04/07 09:17:57;;;;;;;;;;;;;;;17.87;55.34;101446.31;5128761;28;1224;-66
2021/04/07 09:20:33;;;;;;;;;;;;;;;17.85;55.26;101442.03;5093979;28;1309;-67
2021/04/07 09:23:09;;;;;;;;;;;;;;;17.82;55.23;101453.56;5128177;28;1298;-70
2021/04/07 09:25:36;;;;;;;;;;;;;;;17.82;54.92;101443.00;5129314;28;1091;-71
2021/04/07 09:28:04;;;;;;;;;;;;;;;17.79;55.08;101461.59;5129034;28;1223;-69
2021/04/07 09:30:39;;;;;;;;;;;;;;;17.68;55.12;101450.66;5129520;28;1066;-69
2021/04/07 09:33:07;;;;;;;;;;;;;;;17.74;55.39;101466.22;5129183;28;1989;-68
2021/04/07 09:35:33;;;;;;;;;;;;;;;17.77;55.17;101483.66;5129196;28;918;-69
2021/04/07 09:37:59;;;;;;;;;;;;;;;17.76;55.31;101485.44;5128570;28;1299;-68
2021/04/07 09:40:26;;;;;;;;;;;;;;;17.74;55.21;101481.16;5110221;28;1397;-68
2021/04/07 09:42:54;;;;;;;;;;;;;;;17.71;55.23;101484.78;5110774;28;1268;-69
2021/04/07 09:45:24;;;;;;;;;;;;;;;17.73;55.31;101492.59;5110677;28;1190;-69
2021/04/07 09:47:54;;;;;;;;;;;;;;;17.72;55.23;101497.00;5128418;28;1141;-70
2021/04/07 09:50:21;;;;;;;;;;;;;;;17.73;55.23;101497.88;5110118;28;1317;-69
2021/04/07 09:52:47;;;;;;;;;;;;;;;17.71;55.11;101500.59;5129052;27;1909;-70
2021/04/07 09:55:21;;;;;;;;;;;;;;;17.73;55.16;101504.00;5132617;27;1026;-69
2021/04/07 09:57:57;;;;;;;;;;;;;;;17.71;55.22;101508.50;5132425;27;1215;-70
2021/04/07 10:00:27;;;;;;;;;;;;;;;17.71;55.17;101511.13;5132952;27;871;-69
2021/04/07 10:02:55;;;;;;;;;;;;;;;17.71;55.11;101511.13;5114038;27;1319;-69
2021/04/07 10:05:25;;;;;;;;;;;;;;;17.71;55.06;101510.28;5114472;27;1160;-67
2021/04/07 10:07:52;;;;;;;;;;;;;;;17.70;54.93;101522.59;5132912;27;1289;-69
2021/04/07 10:10:22;;;;;;;;;;;;;;;17.70;55.16;101521.72;5114078;27;1033;-69
2021/04/07 10:12:55;;;;;;;;;;;;;;;17.68;55.09;101526.19;5132786;27;1936;-67
2021/04/07 10:15:25;;;;;;;;;;;;;;;17.69;55.08;101528.75;5132680;27;919;-68
2021/04/07 10:17:51;;;;;;;;;;;;;;;17.68;54.97;101521.78;5131744;27;1341;-68
2021/04/07 10:20:26;;;;;;;;;;;;;;;17.69;54.94;101525.28;5096686;27;1303;-67
2021/04/07 10:22:52;;;;;;;;;;;;;;;17.68;55.16;101524.44;5131930;27;1276;-68
2021/04/07 10:25:25;;;;;;;;;;;;;;;17.69;54.93;101530.56;5132315;27;1062;-69
2021/04/07 10:27:51;;;;;;;;;;;;;;;17.74;54.84;101528.59;5113977;27;1360;-71
2021/04/07 10:30:18;;;;;;;;;;;;;;;17.83;55.16;101531.72;5132018;27;955;-73
2021/04/07 10:32:48;;;;;;;;;;;;;;;17.89;54.91;101534.09;5113404;27;1982;-71
2021/04/07 10:35:19;;;;;;;;;;;;;;;17.87;54.68;101527.19;5113686;27;1167;-70
2021/04/07 10:37:59;;;;;;;;;;;;;;;17.85;54.79;101531.63;5108956;27;1350;-71
2021/04/07 10:40:30;;;;;;;;;;;;;;;17.85;54.97;101532.50;5092606;28;1016;-72
2021/04/07 10:42:57;;;;;;;;;;;;;;;17.84;55.14;101530.78;5111437;28;1267;-72
2021/04/07 10:45:25;;;;;;;;;;;;;;;18.00;55.62;101531.88;5072505;28;1506;-74
2021/04/07 10:47:52;;;;;;;;;;;;;;;17.94;55.38;101531.25;5101788;27;1367;-73
2021/04/07 10:50:28;;;;;;;;;;;;;;;17.90;55.39;101541.06;5111021;28;1083;-74
2021/04/07 10:52:56;;;;;;;;;;;;;;;17.97;55.94;101539.03;5092784;28;2025;-75
2021/04/07 10:55:24;;;;;;;;;;;;;;;17.92;55.60;101538.38;5111814;28;1078;-73
2021/04/07 10:57:54;;;;;;;;;;;;;;;17.90;55.74;101535.78;5110804;28;1362;-74
2021/04/07 11:00:35;;;;;;;;;;;;;;;17.89;55.93;101534.09;5111457;28;954;-74
2021/04/07 11:03:02;;;;;;;;;;;;;;;17.91;56.09;101529.63;5092569;28;1220;-76
2021/04/07 11:05:39;;;;;;;;;;;;;;;17.90;55.97;101541.06;5091974;28;1070;-77
2021/04/07 11:08:07;;;;;;;;;;;;;;;17.92;56.33;101533.97;5090505;28;1240;-77
2021/04/07 11:10:39;;;;;;;;;;;;;;;17.91;56.35;101536.66;5090431;28;1522;-78
2021/04/07 11:13:05;;;;;;;;;;;;;;;17.91;56.36;101545.44;5090458;28;1941;-77
2021/04/07 11:15:32;;;;;;;;;;;;;;;17.91;56.40;101539.28;5074872;28;899;-78
2021/04/07 11:17:58;;;;;;;;;;;;;;;17.86;56.42;101528.94;5112473;27;1199;-74
2021/04/07 11:20:28;;;;;;;;;;;;;;;17.93;56.61;101546.22;5109910;27;1706;-75
2021/04/07 11:22:56;;;;;;;;;;;;;;;17.96;56.75;101545.25;5099267;27;1397;-75
2021/04/07 11:25:22;;;;;;;;;;;;;;;17.94;56.50;101547.06;5122824;27;1195;-73
2021/04/07 11:27:52;;;;;;;;;;;;;;;17.95;56.73;101549.66;5127587;27;1251;-73
2021/04/07 11:30:20;;;;;;;;;;;;;;;18.00;57.31;101542.41;5110989;27;1208;-77
2021/04/07 11:32:53;;;;;;;;;;;;;;;17.99;56.67;101545.97;5092401;28;2005;-76
2021/04/07 11:35:47;;;;;;;;;;;;;;;17.97;56.58;101544.31;5077313;27;1416;-78
2021/04/07 11:46:42;;;;;;;;;;;;;;;18.16;57.50;101547.03;5117745;27;1315;-76
2021/04/07 11:49:11;;;;;;;;;;;;;;;18.09;57.70;101542.97;5109968;27;1233;-76
2021/04/07 11:51:41;;;;;;;;;;;;;;;18.12;57.50;101556.03;5109322;27;1992;-75
2021/04/07 11:54:11;;;;;;;;;;;;;;;18.08;57.49;101549.16;5109500;27;1173;-80
2021/04/07 11:56:41;;;;;;;;;;;;;;;18.01;57.28;101554.69;5102207;28;1315;-78
2021/04/07 11:59:08;;;;;;;;;;;;;;;17.98;57.49;101553.94;5089917;28;1077;-80
2021/04/07 12:01:43;;;;;;;;;;;;;;;17.98;57.55;101559.22;5108875;28;1401;-77
2021/04/07 12:04:16;;;;;;;;;;;;;;;18.13;57.93;101557.72;5106914;28;1179;-75
2021/04/07 12:06:42;;;;;;;;;;;;;;;18.20;57.85;101556.56;5089447;28;1259;-77
2021/04/07 12:09:09;;;;;;;;;;;;;;;18.21;57.21;101556.47;5072031;28;1545;-78
2021/04/07 12:11:38;;;;;;;;;;;;;;;18.20;57.47;101560.06;5108599;27;1283;-80
2021/04/07 12:14:05;;;;;;;;;;;;;;;18.22;57.86;101563.47;5108425;28;1979;-78
2021/04/07 12:16:31;;;;;;;;;;;;;;;18.19;57.60;101563.59;5115632;27;1353;-78
2021/04/07 12:18:58;;;;;;;;;;;;;;;18.19;57.55;101560.09;5110685;27;1245;-76
2021/04/07 12:21:24;;;;;;;;;;;;;;;18.18;58.03;101564.50;5121472;27;1256;-74
2021/04/07 12:23:52;;;;;;;;;;;;;;;18.20;57.85;101569.75;5090140;28;1159;-71
2021/04/07 12:26:20;;;;;;;;;;;;;;;18.19;57.60;101563.59;5083817;28;1521;-72
2021/04/07 12:28:50;;;;;;;;;;;;;;;18.19;57.86;101573.28;5099772;27;1140;-69
2021/04/07 12:31:19;;;;;;;;;;;;;;;18.19;57.98;101568.88;5121718;27;1500;-75
2021/04/07 12:33:53;;;;;;;;;;;;;;;18.22;57.91;101568.75;5109125;27;1906;-75
2021/04/07 12:36:29;;;;;;;;;;;;;;;18.22;57.67;101565.25;5092632;27;1301;-76
2021/04/07 12:39:12;;;;;;;;;;;;;;;18.19;57.76;101568.88;5094296;27;1433;-76
2021/04/07 12:41:51;;;;;;;;;;;;;;;18.19;57.63;101568.00;5110299;27;1397;-76
2021/04/07 12:44:23;;;;;;;;;;;;;;;18.19;57.56;101568.00;5109629;27;1210;-76
2021/04/07 12:46:50;;;;;;;;;;;;;;;18.16;57.67;101571.63;5109780;27;1373;-74
2021/04/07 12:49:22;;;;;;;;;;;;;;;18.17;57.71;101562.81;5109360;28;1115;-74
2021/04/07 12:51:49;;;;;;;;;;;;;;;18.18;57.63;101566.31;5109785;28;1910;-72
2021/04/07 12:54:28;;;;;;;;;;;;;;;18.19;57.37;101566.25;5109835;27;1292;-75
2021/04/07 12:57:01;;;;;;;;;;;;;;;18.19;57.53;101568.00;5109252;28;1338;-75
2021/04/07 12:59:27;;;;;;;;;;;;;;;18.19;57.25;101575.94;5128355;28;813;-76
2021/04/07 13:01:55;;;;;;;;;;;;;;;18.20;58.24;101577.66;5116797;28;1341;-73